Time;durP1;ratioP1;P1;durP2;ratioP2;P2;SDS_P1;SDS_P2;PMS_P1;PMS_P2;Temp;Humidity;BMP_temperature;BMP_pressure;BME280_temperature;BME280_humidity;BME280_pressure;Samples;Min_cycle;Max_cycle;Signal;HPM_P1;HPM_P2
2022/02/18 00:00:54;;;;;;;15.13;3.88;;;;;;;5.61;100.00;67399.03;5050468;28;20041;-88
2022/02/18 00:03:20;;;;;;;19.15;3.95;;;;;;;;;;5046000;28;20060;-93
2022/02/18 00:05:45;;;;;;;15.00;3.72;;;;;;;5.62;100.00;67402.78;5037206;28;20075;-90
2022/02/18 00:08:10;;;;;;;18.98;4.45;;;;;;;;;;5036988;28;20046;-93
2022/02/18 00:10:36;;;;;;;13.48;3.42;;;;;;;;;;5035476;28;20451;-86
2022/02/18 00:13:01;;;;;;;20.92;4.22;;;;;;;5.62;100.00;67399.59;5026415;28;20037;-87
2022/02/18 00:15:27;;;;;;;13.75;3.78;;;;;;;5.60;100.00;67392.59;5052294;28;20498;-90
2022/02/18 00:17:53;;;;;;;16.20;3.60;;;;;;;;;;5044512;28;20057;-89
2022/02/18 00:20:18;;;;;;;18.13;4.35;;;;;;;;;;5032317;28;20126;-87
2022/02/18 00:22:45;;;;;;;23.48;4.10;;;;;;;5.60;100.00;67397.31;5046113;28;20253;-87
2022/02/18 00:25:11;;;;;;;16.88;3.97;;;;;;;5.59;100.00;67396.75;5039387;28;20045;-86
2022/02/18 00:27:38;;;;;;;16.30;3.85;;;;;;;5.59;100.00;67396.75;5039856;28;20670;-85
2022/02/18 00:30:05;;;;;;;13.35;3.83;;;;;;;;;;5034270;28;20504;-87
2022/02/18 00:32:31;;;;;;;20.05;4.18;;;;;;;;;;5034318;28;20042;-86
2022/02/18 00:34:59;;;;;;;16.42;3.42;;;;;;;5.61;100.00;67401.66;5030182;28;20093;-85
2022/02/18 00:37:33;;;;;;;16.20;4.00;;;;;;;5.61;100.00;67404.31;5026447;28;20121;-87
2022/02/18 00:40:03;;;;;;;20.73;4.25;;;;;;;;;;5016633;28;20045;-91
2022/02/18 00:42:29;;;;;;;25.75;4.50;;;;;;;5.58;100.00;67398.28;5032184;28;20397;-89
2022/02/18 00:44:56;;;;;;;21.00;4.95;;;;;;;5.60;100.00;67397.88;5011745;28;20045;-89
2022/02/18 00:47:21;;;;;;;16.65;4.10;;;;;;;;;;5034845;28;20132;-87
2022/02/18 00:49:48;;;;;;;20.00;4.18;;;;;;;;;;5035918;28;20129;-87
2022/02/18 00:52:15;;;;;;;19.38;3.30;;;;;;;;;;5039538;28;20037;-87
2022/02/18 00:54:42;;;;;;;17.77;3.80;;;;;;;5.57;100.00;67394.50;5036484;28;20076;-86
2022/02/18 00:57:08;;;;;;;19.90;4.22;;;;;;;;;;5037924;28;20099;-85
2022/02/18 00:59:37;;;;;;;17.90;4.45;;;;;;;5.55;100.00;67392.25;5037376;28;20041;-85
2022/02/18 01:02:03;;;;;;;22.33;3.88;;;;;;;5.56;100.00;67398.66;5021947;28;20069;-84
2022/02/18 01:04:29;;;;;;;18.02;3.60;;;;;;;;;;5017605;28;20050;-85
2022/02/18 01:06:55;;;;;;;15.85;4.22;;;;;;;5.53;100.00;67392.63;5029397;28;20065;-85
2022/02/18 01:09:22;;;;;;;16.10;3.53;;;;;;;5.51;100.00;67392.44;5023511;28;20045;-85
2022/02/18 01:11:48;;;;;;;19.17;4.30;;;;;;;5.49;100.00;67390.75;5033744;28;20060;-85
2022/02/18 01:14:18;;;;;;;17.00;4.07;;;;;;;5.49;100.00;67385.47;5045184;28;20037;-85
2022/02/18 01:16:44;;;;;;;17.40;4.32;;;;;;;5.52;100.00;67388.84;5039768;28;20153;-85
2022/02/18 01:19:14;;;;;;;17.58;4.10;;;;;;;5.52;100.00;67388.28;5038708;28;20383;-85
2022/02/18 01:21:41;;;;;;;13.15;3.42;;;;;;;;;;5036778;28;20096;-85
2022/02/18 01:24:10;;;;;;;18.02;3.78;;;;;;;5.53;100.00;67390.00;5046008;28;20049;-84
2022/02/18 01:26:37;;;;;;;13.45;3.80;;;;;;;;;;5046148;28;20044;-87
2022/02/18 01:29:04;;;;;;;17.90;3.60;;;;;;;5.56;100.00;67396.00;5052093;28;20034;-85
2022/02/18 01:31:39;;;;;;;17.83;4.00;;;;;;;5.57;100.00;67394.50;5036725;28;20107;-84
2022/02/18 01:34:07;;;;;;;16.67;4.45;;;;;;;5.58;100.00;67395.66;5024440;28;20085;-85
2022/02/18 01:36:41;;;;;;;17.20;3.35;;;;;;;5.58;100.00;67389.78;5037748;28;20034;-85
2022/02/18 01:39:10;;;;;;;19.70;4.35;;;;;;;5.59;100.00;67396.75;5027112;28;20037;-86
2022/02/18 01:41:43;;;;;;;20.67;4.75;;;;;;;;;;5007277;28;20053;-87
2022/02/18 01:44:10;;;;;;;13.80;3.95;;;;;;;;;;5021322;28;20566;-88
2022/02/18 01:46:40;;;;;;;25.38;5.45;;;;;;;5.64;100.00;67397.13;5021291;28;20096;-87
2022/02/18 01:49:10;;;;;;;15.05;4.07;;;;;;;5.65;100.00;67405.63;5022298;28;20057;-89
2022/02/18 01:51:35;;;;;;;15.30;4.25;;;;;;;5.66;100.00;67409.38;4996198;28;20478;-86
2022/02/18 01:54:03;;;;;;;16.75;4.72;;;;;;;5.65;100.00;67403.53;5027015;28;20081;-88
2022/02/18 01:56:31;;;;;;;15.07;3.90;;;;;;;5.65;100.00;67403.53;5015859;28;20041;-88
2022/02/18 01:59:05;;;;;;;19.50;5.18;;;;;;;;;;5006851;28;20048;-85
2022/02/18 02:01:30;;;;;;;10.63;3.58;;;;;;;5.65;100.00;67408.81;5026452;28;20053;-91
2022/02/18 02:03:56;;;;;;;14.02;5.00;;;;;;;;;;4994252;28;20502;-88
2022/02/18 02:06:21;;;;;;;15.93;4.18;;;;;;;;;;5020082;28;20123;-87
2022/02/18 02:08:48;;;;;;;19.30;4.55;;;;;;;5.72;100.00;67415.59;5027819;28;20045;-91
2022/02/18 02:11:13;;;;;;;18.08;4.75;;;;;;;5.73;100.00;67412.03;5021389;28;20041;-87
2022/02/18 02:13:45;;;;;;;23.23;5.35;;;;;;;5.75;100.00;67413.72;5019906;28;20038;-86
2022/02/18 02:16:14;;;;;;;20.67;5.57;;;;;;;5.72;100.00;67412.97;5014060;28;20041;-86
2022/02/18 02:18:41;;;;;;;18.42;4.97;;;;;;;5.73;100.00;67414.09;5023065;28;20095;-85
2022/02/18 02:21:10;;;;;;;14.38;4.65;;;;;;;;;;5035786;28;20128;-87
2022/02/18 02:23:40;;;;;;;25.55;5.75;;;;;;;5.75;100.00;67414.28;5058664;28;20061;-89
2022/02/18 02:26:11;;;;;;;21.05;5.53;;;;;;;5.74;100.00;67413.16;5020117;28;20124;-87
2022/02/18 02:28:42;;;;;;;21.52;6.40;;;;;;;5.73;100.00;67411.47;5034719;28;20117;-85
2022/02/18 02:31:11;;;;;;;17.60;5.00;;;;;;;5.77;100.00;67410.69;5018687;28;20041;-86
2022/02/18 02:33:37;;;;;;;20.65;5.65;;;;;;;5.76;100.00;67415.41;5046379;28;20057;-85
2022/02/18 02:36:03;;;;;;;23.90;6.60;;;;;;;5.79;100.00;67418.25;5035577;28;20049;-85
2022/02/18 02:38:31;;;;;;;22.65;6.75;;;;;;;;;;5042710;28;20044;-85
2022/02/18 02:40:58;;;;;;;26.02;6.57;;;;;;;5.81;100.00;67420.50;5033136;28;20184;-89
2022/02/18 02:43:23;;;;;;;17.67;6.43;;;;;;;5.81;100.00;67421.06;4994924;28;20041;-87
2022/02/18 02:45:49;;;;;;;18.38;6.18;;;;;;;5.84;100.00;67423.88;5028039;28;20057;-91
2022/02/18 02:48:15;;;;;;;20.98;6.85;;;;;;;;;;5031314;28;20092;-84
2022/02/18 02:50:47;;;;;;;20.08;7.47;;;;;;;5.89;100.00;67432.19;5032294;28;20049;-85
2022/02/18 02:53:16;;;;;;;26.45;9.82;;;;;;;5.88;100.00;67428.41;5039300;28;20461;-86
2022/02/18 02:55:43;;;;;;;27.25;7.88;;;;;;;5.89;100.00;67424.81;5040154;28;20040;-85
2022/02/18 02:58:12;;;;;;;25.35;8.27;;;;;;;;;;5042182;28;20041;-84
2022/02/18 03:00:46;;;;;;;23.33;8.93;;;;;;;;;;5041938;28;20049;-85
2022/02/18 03:03:15;;;;;;;26.98;8.88;;;;;;;5.94;100.00;67429.94;5016763;28;20056;-85
2022/02/18 03:05:40;;;;;;;26.08;7.50;;;;;;;5.94;100.00;67437.84;5027033;28;20041;-85
2022/02/18 03:08:17;;;;;;;23.20;7.88;;;;;;;5.95;100.00;67436.34;5036835;28;20695;-88
2022/02/18 03:11:14;;;;;;;25.33;8.20;;;;;;;5.97;100.00;67438.03;5029731;28;20045;-90
2022/02/18 03:13:32;;;;;;;25.52;7.88;;;;;;;;;;5022945;28;20041;-88
2022/02/18 03:15:58;;;;;;;23.13;8.45;;;;;;;5.96;100.00;67437.47;5029049;28;20052;-84
2022/02/18 03:18:24;;;;;;;24.50;8.25;;;;;;;;;;5031039;28;20896;-92
2022/02/18 03:20:59;;;;;;;23.25;8.10;;;;;;;6.01;100.00;67442.56;5030407;28;20068;-86
2022/02/18 03:23:25;;;;;;;25.88;6.55;;;;;;;;;;5030282;28;20050;-85
2022/02/18 03:25:51;;;;;;;30.95;7.38;;;;;;;5.99;100.00;67440.31;5031650;28;20283;-86
2022/02/18 03:28:18;;;;;;;26.70;8.60;;;;;;;6.04;100.00;67441.25;5024548;28;20141;-91
2022/02/18 03:30:44;;;;;;;22.92;6.63;;;;;;;6.03;100.00;67444.81;5021398;28;20133;-84
2022/02/18 03:33:11;;;;;;;22.40;7.00;;;;;;;;;;5038746;28;20061;-84
2022/02/18 03:35:38;;;;;;;28.63;7.20;;;;;;;6.09;100.00;67451.59;5033502;28;20042;-84
2022/02/18 03:38:05;;;;;;;20.58;6.78;;;;;;;6.09;100.00;67452.16;5034767;28;20069;-85
2022/02/18 03:40:31;;;;;;;19.92;6.25;;;;;;;6.09;100.00;67451.59;5045830;28;20119;-85
2022/02/18 03:42:57;;;;;;;19.80;4.95;;;;;;;6.08;100.00;67451.03;5037033;28;20053;-85
2022/02/18 03:45:26;;;;;;;20.48;6.82;;;;;;;6.11;100.00;67448.59;5037438;28;20137;-84
2022/02/18 03:48:01;;;;;;;23.05;5.90;;;;;;;6.10;100.00;67453.31;5030672;28;20053;-84
2022/02/18 03:50:30;;;;;;;24.90;6.53;;;;;;;6.08;100.00;67451.03;5031685;28;20037;-88
2022/02/18 03:52:57;;;;;;;25.17;7.53;;;;;;;;;;5043174;28;20037;-85
2022/02/18 03:55:30;;;;;;;24.85;6.93;;;;;;;6.08;100.00;67453.69;5032107;28;20099;-86
2022/02/18 03:57:56;;;;;;;15.60;4.85;;;;;;;;;;5037431;28;20048;-84
2022/02/18 04:00:24;;;;;;;19.83;6.28;;;;;;;6.12;100.00;67455.00;5023029;28;20042;-84
2022/02/18 04:02:50;;;;;;;25.27;6.18;;;;;;;6.14;100.00;67456.69;5032560;28;20061;-87
2022/02/18 04:05:16;;;;;;;20.45;6.03;;;;;;;;;;5036805;28;20065;-87
2022/02/18 04:07:42;;;;;;;18.73;5.90;;;;;;;6.13;100.00;67450.25;5038274;28;20437;-84
2022/02/18 04:10:08;;;;;;;21.90;6.63;;;;;;;6.12;100.00;67449.16;5041190;28;20049;-86
2022/02/18 04:12:34;;;;;;;19.42;5.18;;;;;;;6.14;100.00;67462.53;5040319;28;20048;-87
2022/02/18 04:14:59;;;;;;;15.07;5.63;;;;;;;6.17;100.00;67460.66;5032695;28;20053;-86
2022/02/18 04:17:27;;;;;;;27.70;6.50;;;;;;;;;;5032656;28;20044;-85
2022/02/18 04:19:53;;;;;;;17.80;4.82;;;;;;;6.14;100.00;67457.25;5027095;28;20065;-84
2022/02/18 04:22:22;;;;;;;17.85;5.55;;;;;;;;;;5049629;28;20477;-88
2022/02/18 04:24:48;;;;;;;20.10;4.43;;;;;;;6.21;100.00;67464.59;5050114;28;20041;-85
2022/02/18 04:27:15;;;;;;;21.55;5.45;;;;;;;6.22;100.00;67465.75;5046974;28;20132;-85
2022/02/18 04:29:41;;;;;;;13.52;4.22;;;;;;;6.21;100.00;67465.16;5038638;28;20096;-86
2022/02/18 04:32:07;;;;;;;25.08;6.47;;;;;;;;;;5010447;28;20080;-84
2022/02/18 04:34:35;;;;;;;21.40;4.88;;;;;;;6.24;100.00;67460.06;5033592;28;20049;-84
2022/02/18 04:37:00;;;;;;;21.73;5.32;;;;;;;6.22;100.00;67465.75;5041006;28;20339;-85
2022/02/18 04:39:26;;;;;;;18.20;4.72;;;;;;;6.26;100.00;67470.25;5039054;28;20042;-84
2022/02/18 04:41:52;;;;;;;22.13;4.63;;;;;;;6.25;100.00;67469.13;5035686;28;20056;-85
2022/02/18 04:44:18;;;;;;;26.40;4.75;;;;;;;;;;5038851;28;20073;-84
2022/02/18 04:46:43;;;;;;;27.98;4.95;;;;;;;;;;5039789;28;20033;-84
2022/02/18 04:49:14;;;;;;;25.17;4.63;;;;;;;6.23;100.00;67466.88;5039398;28;20072;-86
2022/02/18 04:51:40;;;;;;;23.55;5.30;;;;;;;6.19;100.00;67462.91;5032494;28;20049;-85
2022/02/18 04:54:06;;;;;;;23.60;5.25;;;;;;;6.18;100.00;67467.06;5035581;28;20060;-85
2022/02/18 04:56:35;;;;;;;22.10;4.93;;;;;;;6.16;100.00;67458.94;5040687;28;20041;-84
2022/02/18 04:59:16;;;;;;;26.02;5.72;;;;;;;6.17;100.00;67460.66;5034507;28;20042;-84
2022/02/18 05:01:43;;;;;;;23.50;4.78;;;;;;;6.17;100.00;67460.09;5037866;28;20037;-89
2022/02/18 05:04:09;;;;;;;20.70;4.55;;;;;;;6.15;100.00;67457.81;5038792;28;20090;-86
2022/02/18 05:06:34;;;;;;;22.65;4.28;;;;;;;6.14;100.00;67456.69;5043004;28;20108;-84
2022/02/18 05:09:00;;;;;;;23.77;5.40;;;;;;;;;;5034444;28;20049;-84
2022/02/18 05:11:25;;;;;;;20.98;5.80;;;;;;;;;;5035496;28;20052;-84
2022/02/18 05:13:50;;;;;;;30.05;4.70;;;;;;;;;;5032896;28;20075;-85
2022/02/18 05:16:20;;;;;;;21.90;4.88;;;;;;;6.10;100.00;67453.31;5039408;28;20076;-84
2022/02/18 05:18:47;;;;;;;27.45;5.07;;;;;;;;;;5027609;28;20064;-88
2022/02/18 05:21:17;;;;;;;27.10;5.07;;;;;;;;;;5035248;28;20506;-85
2022/02/18 05:23:44;;;;;;;28.33;6.13;;;;;;;6.05;100.00;67447.09;5025747;28;20084;-86
2022/02/18 05:26:12;;;;;;;25.30;5.22;;;;;;;;;;5037444;28;20042;-84
2022/02/18 05:28:38;;;;;;;25.40;5.25;;;;;;;6.03;100.00;67440.09;5052205;28;20053;-86
2022/02/18 05:31:04;;;;;;;20.00;5.50;;;;;;;;;;5034312;28;20041;-84
2022/02/18 05:33:31;;;;;;;24.00;5.18;;;;;;;6.03;100.00;67440.09;5031622;28;20041;-88
2022/02/18 05:35:59;;;;;;;26.90;5.38;;;;;;;6.05;100.00;67441.81;5032766;28;20045;-89
2022/02/18 05:38:26;;;;;;;24.13;4.45;;;;;;;;;;5013809;28;20160;-86
2022/02/18 05:40:52;;;;;;;26.05;5.75;;;;;;;;;;5018737;28;20135;-85
2022/02/18 05:43:18;;;;;;;29.00;6.20;;;;;;;6.05;100.00;67447.66;5051669;28;20119;-86
2022/02/18 05:45:51;;;;;;;27.00;5.80;;;;;;;6.05;100.00;67447.66;5013992;28;20457;-86
2022/02/18 05:48:16;;;;;;;21.90;5.28;;;;;;;;;;5049736;28;20073;-87
2022/02/18 05:50:43;;;;;;;20.58;5.20;;;;;;;6.06;100.00;67443.50;5035300;28;20107;-87
2022/02/18 05:53:08;;;;;;;25.65;5.97;;;;;;;6.10;100.00;67453.31;5022692;28;20045;-87
2022/02/18 05:55:39;;;;;;;29.65;6.97;;;;;;;;;;4999319;28;20465;-86
2022/02/18 05:58:05;;;;;;;27.60;5.68;;;;;;;6.14;100.00;67456.69;5023073;28;20057;-87
2022/02/18 06:00:32;;;;;;;24.02;6.55;;;;;;;6.16;100.00;67458.94;5001432;28;20042;-86
2022/02/18 06:02:57;;;;;;;28.38;5.45;;;;;;;6.15;100.00;67449.88;5029027;28;20052;-86
2022/02/18 06:05:23;;;;;;;27.00;5.40;;;;;;;6.16;100.00;67458.94;4996707;28;20046;-85
2022/02/18 06:07:55;;;;;;;27.83;5.75;;;;;;;;;;5032643;28;20589;-88
2022/02/18 06:10:22;;;;;;;24.60;6.70;;;;;;;;;;5049518;28;20041;-87
2022/02/18 06:12:50;;;;;;;25.13;6.53;;;;;;;6.15;100.00;67457.81;5030608;28;20398;-87
2022/02/18 06:15:18;;;;;;;38.33;7.00;;;;;;;6.18;100.00;67461.22;5019930;28;20465;-88
2022/02/18 06:17:47;;;;;;;32.70;7.10;;;;;;;6.15;100.00;67458.38;5023941;28;20115;-86
2022/02/18 06:20:15;;;;;;;28.85;8.10;;;;;;;6.16;100.00;67459.53;5029489;28;20041;-86
2022/02/18 06:22:40;;;;;;;29.58;7.00;;;;;;;6.17;100.00;67455.38;5021777;28;20483;-86
2022/02/18 06:25:08;;;;;;;38.30;8.45;;;;;;;6.18;100.00;67456.47;5017291;28;20065;-90
2022/02/18 06:27:34;;;;;;;40.13;9.32;;;;;;;6.21;100.00;67467.81;5031569;28;20064;-90
2022/02/18 06:29:59;;;;;;;32.05;8.65;;;;;;;6.24;100.00;67468.00;5028221;28;20045;-85
2022/02/18 06:32:24;;;;;;;29.67;6.30;;;;;;;6.20;100.00;67466.13;5027766;28;20409;-88
2022/02/18 06:34:52;;;;;;;27.33;6.93;;;;;;;;;;5024767;28;20042;-92
2022/02/18 06:37:20;;;;;;;25.38;6.80;;;;;;;;;;5030059;28;20093;-85
2022/02/18 06:39:46;;;;;;;30.42;7.20;;;;;;;6.25;100.00;67469.13;5031048;28;20041;-85
2022/02/18 06:42:12;;;;;;;29.52;6.55;;;;;;;;;;5034277;28;20053;-89
2022/02/18 06:44:38;;;;;;;26.90;7.22;;;;;;;6.29;100.00;67476.84;5035716;28;20080;-86
2022/02/18 06:47:04;;;;;;;26.83;6.68;;;;;;;6.28;100.00;67473.09;5038411;28;20429;-87
2022/02/18 06:49:29;;;;;;;24.50;6.47;;;;;;;;;;5038585;28;20049;-86
2022/02/18 06:51:55;;;;;;;32.85;5.95;;;;;;;6.27;100.00;67471.38;5041322;28;20045;-86
2022/02/18 06:54:21;;;;;;;30.52;6.70;;;;;;;;;;5042302;28;20060;-86
2022/02/18 06:56:56;;;;;;;28.67;6.63;;;;;;;6.28;100.00;67467.25;5026795;28;20042;-87
2022/02/18 06:59:24;;;;;;;24.45;6.03;;;;;;;6.27;100.00;67471.97;5018292;28;20045;-88
2022/02/18 07:01:53;;;;;;;25.90;6.40;;;;;;;6.27;100.00;67466.69;5017165;28;20094;-86
2022/02/18 07:04:19;;;;;;;23.67;6.55;;;;;;;;;;5017099;28;20367;-86
2022/02/18 07:06:45;;;;;;;25.05;6.78;;;;;;;6.26;100.00;67470.81;5024506;28;20042;-86
2022/02/18 07:09:11;;;;;;;26.30;6.20;;;;;;;;;;5019059;28;20049;-86
2022/02/18 07:11:40;;;;;;;26.15;6.25;;;;;;;6.28;100.00;67467.25;5029586;28;20110;-86
2022/02/18 07:14:11;;;;;;;19.33;5.07;;;;;;;6.30;100.00;67469.50;5026530;28;20044;-86
2022/02/18 07:16:41;;;;;;;27.05;6.07;;;;;;;6.31;100.00;67476.47;5024522;28;20077;-86
2022/02/18 07:19:11;;;;;;;22.58;6.03;;;;;;;6.30;100.00;67475.34;5037600;28;20088;-86
2022/02/18 07:21:37;;;;;;;16.90;4.63;;;;;;;;;;5030162;28;20037;-86
2022/02/18 07:24:09;;;;;;;22.65;4.72;;;;;;;;;;5034801;28;20060;-86
2022/02/18 07:26:34;;;;;;;24.42;4.60;;;;;;;6.38;100.00;67478.53;5047159;28;20072;-87
2022/02/18 07:29:00;;;;;;;15.35;4.18;;;;;;;6.38;100.00;67477.97;5046560;28;20057;-86
2022/02/18 07:31:26;;;;;;;20.15;4.15;;;;;;;6.37;100.00;67485.34;5040418;28;20054;-86
2022/02/18 07:33:53;;;;;;;21.80;4.57;;;;;;;;;;5038425;28;20076;-86
2022/02/18 07:36:19;;;;;;;18.30;4.80;;;;;;;;;;5041088;28;20041;-86
2022/02/18 07:38:51;;;;;;;23.02;5.38;;;;;;;;;;5028675;28;20102;-86
2022/02/18 07:41:17;;;;;;;21.67;4.90;;;;;;;;;;5033770;28;20072;-86
2022/02/18 07:43:44;;;;;;;22.05;5.05;;;;;;;;;;5025105;28;20049;-86
2022/02/18 07:46:10;;;;;;;19.55;6.25;;;;;;;6.20;100.00;67464.03;5049346;28;20057;-86
2022/02/18 07:48:37;;;;;;;18.52;4.57;;;;;;;6.17;100.00;67454.81;5036055;28;20080;-86
2022/02/18 07:51:06;;;;;;;21.83;6.10;;;;;;;6.14;100.00;67456.69;5044578;28;20054;-86
2022/02/18 07:53:34;;;;;;;24.88;6.05;;;;;;;6.12;100.00;67457.63;5035574;28;20049;-85
2022/02/18 07:56:00;;;;;;;31.15;6.75;;;;;;;6.07;100.00;67451.97;5042092;28;20336;-86
2022/02/18 07:58:26;;;;;;;28.65;7.18;;;;;;;6.05;100.00;67447.66;5043055;28;20041;-86
2022/02/18 08:00:52;;;;;;;29.95;7.78;;;;;;;;;;5038157;28;20099;-86
2022/02/18 08:03:19;;;;;;;24.52;7.32;;;;;;;6.03;100.00;67445.38;5042855;28;20037;-86
2022/02/18 08:05:44;;;;;;;28.02;6.47;;;;;;;;;;5042484;28;20045;-86
2022/02/18 08:08:11;;;;;;;26.65;7.97;;;;;;;6.01;100.00;67443.13;5054719;28;20064;-86
2022/02/18 08:10:37;;;;;;;33.28;8.73;;;;;;;6.02;100.00;67438.97;5033500;28;20042;-86
2022/02/18 08:13:03;;;;;;;29.65;7.88;;;;;;;6.03;100.00;67445.38;5044740;28;20061;-85
2022/02/18 08:15:28;;;;;;;32.72;9.93;;;;;;;;;;5037997;28;20041;-86
2022/02/18 08:18:01;;;;;;;24.08;8.45;;;;;;;6.06;100.00;67442.94;5041674;28;20029;-85
2022/02/18 08:20:26;;;;;;;26.95;9.75;;;;;;;6.08;100.00;67451.03;5041489;28;20088;-85
2022/02/18 08:22:53;;;;;;;32.58;14.07;;;;;;;6.12;100.00;67459.72;5032094;28;20042;-86
2022/02/18 08:25:19;;;;;;;31.38;14.45;;;;;;;6.14;100.00;67456.69;5009146;28;20045;-86
2022/02/18 08:27:46;;;;;;;34.72;14.27;;;;;;;6.15;100.00;67460.47;5019098;28;20041;-85
2022/02/18 08:30:12;;;;;;;40.10;17.88;;;;;;;;;;5046400;28;20047;-85
2022/02/18 08:32:38;;;;;;;35.00;14.90;;;;;;;6.16;100.00;67458.94;5041692;28;20033;-86
2022/02/18 08:35:04;;;;;;;44.03;20.63;;;;;;;6.19;100.00;67465.56;5041864;28;20056;-85
2022/02/18 08:37:29;;;;;;;39.55;18.73;;;;;;;6.29;100.00;67468.94;5041042;28;20183;-86
2022/02/18 08:39:55;;;;;;;39.25;16.63;;;;;;;6.40;100.00;67480.81;5020384;28;20065;-86
2022/02/18 08:42:23;;;;;;;42.78;19.70;;;;;;;6.47;100.00;67488.16;5042016;28;20076;-86
2022/02/18 08:44:49;;;;;;;44.22;20.45;;;;;;;6.47;100.00;67488.72;5033095;28;20045;-86
2022/02/18 08:47:14;;;;;;;49.25;23.23;;;;;;;6.49;100.00;67495.69;5043823;28;20140;-86
2022/02/18 08:49:42;;;;;;;48.70;26.10;;;;;;;;;;5035167;28;20076;-86
2022/02/18 08:52:09;;;;;;;45.47;25.20;;;;;;;6.53;100.00;67500.81;5057457;28;20062;-86
2022/02/18 08:54:35;;;;;;;42.45;20.05;;;;;;;;;;5079855;28;20154;-86
2022/02/18 08:57:05;;;;;;;42.03;19.45;;;;;;;;;;5079253;28;20110;-86
2022/02/18 08:59:31;;;;;;;36.42;16.75;;;;;;;6.72;100.00;67516.41;5081930;28;20036;-86
2022/02/18 09:01:56;;;;;;;37.47;12.73;;;;;;;;;;5100149;28;20083;-86
2022/02/18 09:04:23;;;;;;;35.53;15.95;;;;;;;;;;5077882;28;20059;-85
2022/02/18 09:06:50;;;;;;;29.45;13.07;;;;;;;6.93;100.00;67544.91;5082020;28;20055;-86
2022/02/18 09:09:22;;;;;;;32.20;13.20;;;;;;;6.98;100.00;67545.25;5094507;28;20115;-86
2022/02/18 09:11:48;;;;;;;30.27;12.00;;;;;;;7.05;100.00;67552.06;5073116;28;20048;-86
2022/02/18 09:14:24;;;;;;;29.10;12.82;;;;;;;7.08;100.00;67556.03;5075615;28;20040;-86
2022/02/18 09:16:52;;;;;;;30.05;12.43;;;;;;;7.08;100.00;67561.31;5086986;28;20048;-85
2022/02/18 09:19:18;;;;;;;27.23;12.50;;;;;;;;;;5085042;28;20093;-86
2022/02/18 09:21:46;;;;;;;27.80;11.50;;;;;;;7.20;100.00;67574.34;5078240;28;20055;-86
2022/02/18 09:24:14;;;;;;;28.40;9.00;;;;;;;7.23;100.00;67577.72;5062726;28;20045;-86
2022/02/18 09:26:40;;;;;;;29.75;9.60;;;;;;;;;;5026351;28;20052;-86
2022/02/18 09:29:11;;;;;;;24.95;10.40;;;;;;;;;;5039008;28;20054;-86
2022/02/18 09:31:37;;;;;;;22.05;7.53;;;;;;;7.36;100.00;67591.84;5043762;28;20090;-86
2022/02/18 09:34:03;;;;;;;21.58;7.40;;;;;;;;;;5042528;28;20084;-86
2022/02/18 09:36:35;;;;;;;16.55;7.63;;;;;;;;;;5045096;28;20040;-86
2022/02/18 09:39:04;;;;;;;24.10;8.32;;;;;;;7.52;100.00;67601.47;5042305;28;20043;-86
2022/02/18 09:41:32;;;;;;;22.42;6.78;;;;;;;7.54;100.00;67612.25;5040258;28;20037;-86
2022/02/18 09:44:01;;;;;;;18.80;6.55;;;;;;;7.61;100.00;67619.59;5054874;28;20064;-86
2022/02/18 09:46:30;;;;;;;18.00;5.28;;;;;;;7.65;100.00;67624.13;5033240;28;20105;-86
2022/02/18 09:49:04;;;;;;;23.23;7.15;;;;;;;;;;5036712;28;20045;-86
2022/02/18 09:51:31;;;;;;;15.52;4.97;;;;;;;7.72;100.00;67631.50;5049038;28;20042;-86
2022/02/18 09:54:05;;;;;;;15.63;5.20;;;;;;;7.75;100.00;67630.16;5032520;28;20061;-86
2022/02/18 09:56:33;;;;;;;17.77;4.95;;;;;;;7.80;100.00;67643.75;5037420;28;20050;-86
2022/02/18 09:59:03;;;;;;;15.80;4.88;;;;;;;7.83;100.00;67644.50;5046823;28;20060;-86
2022/02/18 10:01:36;;;;;;;19.77;5.40;;;;;;;7.89;100.00;67645.44;5045035;28;20044;-86
2022/02/18 10:04:09;;;;;;;11.02;4.80;;;;;;;7.96;100.00;67658.09;5029889;28;20336;-87
2022/02/18 10:06:38;;;;;;;15.93;5.30;;;;;;;;;;5037413;28;20120;-86
2022/02/18 10:09:05;;;;;;;18.33;6.18;;;;;;;8.02;100.00;67656.94;5038829;28;20060;-86
2022/02/18 10:11:48;;;;;;;17.20;5.38;;;;;;;;;;5040319;28;20033;-86
2022/02/18 10:14:15;;;;;;;19.40;4.95;;;;;;;;;;5031596;28;20123;-86
2022/02/18 10:16:43;;;;;;;15.90;5.70;;;;;;;8.12;100.00;67668.81;5052281;28;20041;-86
2022/02/18 10:19:10;;;;;;;15.82;4.68;;;;;;;8.16;100.00;67680.72;5038408;28;20042;-86
2022/02/18 10:21:37;;;;;;;18.17;5.55;;;;;;;;;;5072478;28;20638;-86
2022/02/18 10:24:18;;;;;;;15.80;6.18;;;;;;;8.24;100.00;67689.81;5064515;28;20666;-86
2022/02/18 10:26:45;;;;;;;13.95;4.53;;;;;;;;;;5083675;28;20566;-86
2022/02/18 10:29:24;;;;;;;10.70;4.85;;;;;;;8.28;100.00;67694.31;5076747;28;20054;-86
2022/02/18 10:32:09;;;;;;;11.88;5.07;;;;;;;8.33;100.00;67694.13;5080741;28;20052;-86
2022/02/18 10:34:55;;;;;;;9.35;4.47;;;;;;;8.36;100.00;67702.81;5096112;28;20032;-86
2022/02/18 10:37:22;;;;;;;15.13;5.60;;;;;;;8.39;100.00;67700.94;5062575;28;20264;-86
2022/02/18 10:39:49;;;;;;;14.73;6.05;;;;;;;8.41;100.00;67703.22;5065766;28;20039;-86
2022/02/18 10:42:17;;;;;;;14.77;5.95;;;;;;;8.44;100.00;67706.03;5086653;28;20050;-86
2022/02/18 10:44:44;;;;;;;13.68;5.35;;;;;;;8.48;100.00;67705.81;5072694;28;20092;-86
2022/02/18 10:47:21;;;;;;;15.65;5.05;;;;;;;;;;5031947;28;20085;-86
2022/02/18 10:49:48;;;;;;;13.48;4.72;;;;;;;8.53;100.00;67716.78;5037245;28;20069;-86
2022/02/18 10:52:16;;;;;;;11.05;3.85;;;;;;;8.59;100.00;67723.03;5056548;28;20045;-86
2022/02/18 10:54:50;;;;;;;12.15;4.20;;;;;;;;;;5036779;28;20105;-86
2022/02/18 10:57:21;;;;;;;11.65;5.25;;;;;;;8.68;100.00;67738.53;5048952;28;20056;-86
2022/02/18 10:59:48;;;;;;;8.50;4.35;;;;;;;;;;5009063;28;20048;-86
2022/02/18 11:02:14;;;;;;;6.07;3.38;;;;;;;;;;5028483;28;20037;-86
2022/02/18 11:04:40;;;;;;;10.52;3.03;;;;;;;;;;5034209;28;20087;-86
2022/02/18 11:07:14;;;;;;;11.23;3.90;;;;;;;8.92;100.00;67764.59;5030241;28;20049;-86
2022/02/18 11:09:43;;;;;;;6.47;3.00;;;;;;;8.99;100.00;67765.13;5028341;28;20048;-86
2022/02/18 11:12:12;;;;;;;6.07;3.23;;;;;;;9.09;100.00;67783.88;5041745;28;20506;-87
2022/02/18 11:14:45;;;;;;;;;;;;;;;9.18;100.00;67788.19;5036486;28;20052;-87
2022/02/18 11:17:12;;;;;;;5.25;2.45;;;;;;;;;;5039585;28;19917;-87
2022/02/18 11:19:41;;;;;;;4.88;2.45;;;;;;;9.31;100.00;67802.34;5039463;28;20037;-86
2022/02/18 11:22:07;;;;;;;;;;;;;;;9.41;100.00;67813.69;5033015;28;20037;-86
2022/02/18 11:24:33;;;;;;;3.83;2.40;;;;;;;;;;5037234;28;20310;-87
2022/02/18 11:27:03;;;;;;;4.60;2.35;;;;;;;9.52;100.00;67823.50;5040475;28;20502;-86
2022/02/18 11:29:35;;;;;;;3.13;1.77;;;;;;;;;;5039604;28;20061;-87
2022/02/18 11:32:04;;;;;;;3.25;1.67;;;;;;;9.69;100.00;67850.75;5037473;28;20045;-87
2022/02/18 11:34:44;;;;;;;4.22;1.83;;;;;;;;;;5042656;28;20057;-86
2022/02/18 11:37:32;;;;;;;4.85;1.67;;;;;;;9.84;100.00;67858.63;5037978;28;20330;-86
2022/02/18 11:40:43;;;;;;;1.85;1.30;;;;;;;9.90;100.00;67868.13;5033579;28;20053;-87
2022/02/18 11:43:25;;;;;;;3.85;1.60;;;;;;;9.98;100.00;67874.53;5003935;28;20057;-87
2022/02/18 11:46:03;;;;;;;2.42;1.30;;;;;;;10.04;100.00;67884.00;4968002;28;20114;-87
2022/02/18 11:48:41;;;;;;;3.73;1.40;;;;;;;10.07;100.00;67887.41;5010896;28;20057;-87
2022/02/18 11:51:13;;;;;;;2.05;1.38;;;;;;;10.11;100.00;67896.69;5045829;28;20052;-87
2022/02/18 11:53:40;;;;;;;3.13;1.38;;;;;;;;;;5044568;28;20041;-87
2022/02/18 11:56:14;;;;;;;3.67;1.38;;;;;;;10.20;100.00;67901.56;5040031;28;20052;-86
2022/02/18 11:59:03;;;;;;;2.65;1.30;;;;;;;;;;5043172;28;20044;-87
2022/02/18 12:01:47;;;;;;;2.40;1.20;;;;;;;;;;5019003;28;20045;-87
2022/02/18 12:04:17;;;;;;;3.22;1.13;;;;;;;;;;5030702;28;20101;-86
2022/02/18 12:07:03;;;;;;;1.30;0.77;;;;;;;10.43;100.00;67927.13;5053366;28;20064;-87
2022/02/18 12:09:50;;;;;;;1.92;0.80;;;;;;;10.49;100.00;67933.38;5041980;28;20045;-87
2022/02/18 12:12:27;;;;;;;2.50;1.10;;;;;;;10.51;100.00;67936.19;5048278;28;20109;-87
2022/02/18 12:14:56;;;;;;;3.67;1.75;;;;;;;;;;5030850;28;20632;-87
2022/02/18 12:17:22;;;;;;;2.70;1.10;;;;;;;;;;5036817;28;20092;-86
2022/02/18 12:19:48;;;;;;;3.03;1.38;;;;;;;10.55;100.00;67945.50;5041829;28;20504;-87
2022/02/18 12:22:29;;;;;;;2.35;1.20;;;;;;;10.53;100.00;67938.47;5039434;28;20045;-86
2022/02/18 12:24:55;;;;;;;2.92;1.38;;;;;;;10.55;100.00;67940.72;5045871;28;20033;-87